Address 0x59dfa43a44c1395e248ad94eca553fda10e0d814 2

Txn Hash Method
Block
From
To
Value [Txn Fee]
0x5d0103f7b75eaaf0208df4832ab020b631738957ebfa5c6fc3a86d3797ea0967Any Swap Out49422612022-10-05 2:15:101 day 22 hrs ago0x59dfa43a44c1395e248ad94eca553fda10e0d814OUT 0xf27ee99622c3c9b264583dacb2cce056e194494f0 CRO0.197435156881 4,906.074519325
0xbe30c454458306bd4a9bd44c5be131296570fec30d1825fcfab369c6dd9254e3Deposit49422512022-10-05 2:14:131 day 22 hrs ago0x59dfa43a44c1395e248ad94eca553fda10e0d814OUT 0x42308dc8ee53807f7a1ad63973753403247343da0 CRO0.54037 5,000
0x3eab4695cb546c072caed6aaecb24800a6503da045830e97b08af21ef19c195fDeposit49422472022-10-05 2:13:501 day 22 hrs ago0x59dfa43a44c1395e248ad94eca553fda10e0d814OUT 0x0b8febbc8b9a683b02567a08a10540a9c55d6e540 CRO0.541045 5,000
0x0651a100c87d9b28fa336b235d899c86d60f6bd27c2fcc88a239721b25b4d2e9Deposit49092582022-10-02 22:14:244 days 2 hrs ago0x59dfa43a44c1395e248ad94eca553fda10e0d814OUT 0x0b8febbc8b9a683b02567a08a10540a9c55d6e540 CRO0.73521 5,000
0x6b7b113fb8a9d8587b8433ccdbedf7405d340144d8402f425854b6cd45974237Swap Exact Token...49092482022-10-02 22:13:274 days 2 hrs ago0x59dfa43a44c1395e248ad94eca553fda10e0d814OUT Mad Meerkat Finance: Master Meerkat & Router0 CRO0.722425 5,000
0xdbae963ddda8aed348b470c24bf37143666a0dfba59d33d8fec6edeae1280985Any Swap Out49085472022-10-02 21:07:154 days 3 hrs ago0x59dfa43a44c1395e248ad94eca553fda10e0d814OUT 0xf27ee99622c3c9b264583dacb2cce056e194494f0 CRO0.197497559998 4,907.625177005
0xda3912b814f22ded07e74ee3d3b0f7b6354aebaa376459074a3097c0b95ad2d6Deposit49085392022-10-02 21:06:294 days 3 hrs ago0x59dfa43a44c1395e248ad94eca553fda10e0d814OUT 0x0b8febbc8b9a683b02567a08a10540a9c55d6e540 CRO0.541045 5,000
0x8ca24a54d31692b76180a4369b8b5360fdbe3373a913677d22416e9554bf58c3Deposit49085352022-10-02 21:06:074 days 3 hrs ago0x59dfa43a44c1395e248ad94eca553fda10e0d814OUT 0x42308dc8ee53807f7a1ad63973753403247343da0 CRO0.61537 5,000
0x92c27873da09859cec271e7a8adeb7683a6c0676e0a8116a1c76a6699af1379bAny Swap Out48672512022-09-30 4:00:536 days 20 hrs ago0x59dfa43a44c1395e248ad94eca553fda10e0d814OUT 0xf27ee99622c3c9b264583dacb2cce056e194494f0 CRO0.197610427684 4,910.429830885
0xe310c705896793267153d13dd4be0927a6a6bf6265b9712bf8740f95c1972cabDeposit48672432022-09-30 4:00:086 days 20 hrs ago0x59dfa43a44c1395e248ad94eca553fda10e0d814OUT 0x0b8febbc8b9a683b02567a08a10540a9c55d6e540 CRO0.541045 5,000
0xf218e24c74f5ea4730178af64a95c97da87de87ad7e96e7cac98101927dbf5edDeposit48672382022-09-30 3:59:406 days 20 hrs ago0x59dfa43a44c1395e248ad94eca553fda10e0d814OUT 0x42308dc8ee53807f7a1ad63973753403247343da0 CRO0.61537 5,000
0xd6dfd83bbe028cf5d4469d5eb0f8c3d3658f8da5b417ff578007b6bf6c87df8fAny Swap Out48022332022-09-25 21:18:2311 days 3 hrs ago0x59dfa43a44c1395e248ad94eca553fda10e0d814OUT 0xf27ee99622c3c9b264583dacb2cce056e194494f0 CRO0.197692817407 4,912.477136589
0xffe265da5591cc10692719660da52417b9ab4e5fa23bc00b0a6c9a9e5e28f60fDeposit48022252022-09-25 21:17:3511 days 3 hrs ago0x59dfa43a44c1395e248ad94eca553fda10e0d814OUT 0x0b8febbc8b9a683b02567a08a10540a9c55d6e540 CRO0.541045 5,000
0xf09de8a89d4ecd2dc1ba05c502c8ac5d80524071d85efd5048a2daa06ca4fc09Deposit48022202022-09-25 21:17:0611 days 3 hrs ago0x59dfa43a44c1395e248ad94eca553fda10e0d814OUT 0x42308dc8ee53807f7a1ad63973753403247343da0 CRO0.61537 5,000
0x65e1166df51d4203ec0912a93bdb7a5e4a036ddc65cfcebb9bb2fa5d4f1c29b4Any Swap Out47467662022-09-22 5:40:4614 days 18 hrs ago0x59dfa43a44c1395e248ad94eca553fda10e0d814OUT 0xf27ee99622c3c9b264583dacb2cce056e194494f0 CRO0.201110568905 4,997.40498733
0xea6e73335f93f8852729f3d6109e5e90ac625d224ddd0baa704879c28398d3f9Deposit47467552022-09-22 5:39:4314 days 18 hrs ago0x59dfa43a44c1395e248ad94eca553fda10e0d814OUT 0x0b8febbc8b9a683b02567a08a10540a9c55d6e540 CRO0.541045 5,000
0xc08fd0cedaf4981d7ecf0483ab058daafaee46c3234b53475ff4d5cc7b57fcdeDeposit47467502022-09-22 5:39:1414 days 18 hrs ago0x59dfa43a44c1395e248ad94eca553fda10e0d814OUT 0x42308dc8ee53807f7a1ad63973753403247343da0 CRO0.61537 5,000
0x6011cebae350cea717eb0b5c11e7f1cd1c63e9cea3aaffd3136673bf6a776c4cAny Swap Out47120812022-09-19 23:01:1817 days 1 hr ago0x59dfa43a44c1395e248ad94eca553fda10e0d814OUT 0xf27ee99622c3c9b264583dacb2cce056e194494f0 CRO0.197859167533 4,916.610777854
0x156dc292847c86c3330c36148f4c833b338df1c85dac3681779e01f0e12a242eDeposit47120652022-09-19 22:59:4717 days 1 hr ago0x59dfa43a44c1395e248ad94eca553fda10e0d814OUT 0x0b8febbc8b9a683b02567a08a10540a9c55d6e540 CRO0.541045 5,000
0x8462add7fd14293dbe6745d6d5b4d60f344d03f81585b058b27f53a7f604dab8Deposit47120602022-09-19 22:59:1917 days 1 hr ago0x59dfa43a44c1395e248ad94eca553fda10e0d814OUT 0x42308dc8ee53807f7a1ad63973753403247343da0 CRO0.61537 5,000
0x4b48eb66e9e09ac1414d26e12aeb2074beb1bfc897e81f9f38a1f8e3449157ecAny Swap Out46540952022-09-16 3:40:4420 days 20 hrs ago0x59dfa43a44c1395e248ad94eca553fda10e0d814OUT 0xf27ee99622c3c9b264583dacb2cce056e194494f0 CRO0.197966656285 4,919.281770373
0x52bb2a13755bb05ae3aa82dbb91e559da6742529597bfdc396330ceb59c47c4eDeposit46540852022-09-16 3:39:4820 days 20 hrs ago0x59dfa43a44c1395e248ad94eca553fda10e0d814OUT 0x0b8febbc8b9a683b02567a08a10540a9c55d6e540 CRO0.541045 5,000
0x2edf579c359fd6aa929434a2728a0dec247870e4a7206559e9d20a7b9b7868c2Deposit46540812022-09-16 3:39:2620 days 20 hrs ago0x59dfa43a44c1395e248ad94eca553fda10e0d814OUT 0x42308dc8ee53807f7a1ad63973753403247343da0 CRO0.61537 5,000
0x22685bbe9798da0e089972d46ef118ec8ce163fb5b4f1a8a6b5bf17320b5b5cbAny Swap Out46385062022-09-15 3:06:0921 days 21 hrs ago0x59dfa43a44c1395e248ad94eca553fda10e0d814OUT 0xf27ee99622c3c9b264583dacb2cce056e194494f0 CRO0.197995437754 4,919.996962324
0x2c51a8d747267b4297e5c1259dbf3135c7a4a8869985a138604b7839fa56a736Deposit46384992022-09-15 3:05:2921 days 21 hrs ago0x59dfa43a44c1395e248ad94eca553fda10e0d814OUT 0x0b8febbc8b9a683b02567a08a10540a9c55d6e540 CRO0.541045 5,000
[ Download CSV Export 
Latest 2 internal transactions
Parent Txn Hash Block From To Value
0xe466a558247b4eab0195a759dffc13585879acb3c2b606f6ee5641e9421449fc41960802022-08-17 2:57:4350 days 21 hrs ago Cronos: WCRO Token0x59dfa43a44c1395e248ad94eca553fda10e0d81474.154442462423829385 CRO
0xf50a4414c821a6e48906bca34d3eeed844aaeaf29acc0a223967a1e09bda4f1328729522022-05-21 21:27:37138 days 3 hrs ago 0x23c95ad50bde257302e63cfd3c19ae1abbe625c70x59dfa43a44c1395e248ad94eca553fda10e0d8140 CRO
[ Download CSV Export 
Loading

Contract Name:
0

Compiler Version
0

Optimization Enabled:
0

Other Settings:
-NA-
Block Transaction Gas Used Reward
Age Block Fee Address BC Fee Address Voting Power Jailed Incoming
Block Uncle Number Difficulty Gas Used Reward
Loading
Make sure to use the "Vote Down" button for any spammy posts, and the "Vote Up" for interesting conversations.